sensor_id;sensor_type;location;lat;lon;timestamp;P1;durP1;ratioP1;P2;durP2;ratioP2
23119;SDS011;11729;50.836;4.330;2022-09-03T00:01:22;10.82;;;8.75;;
23119;SDS011;11729;50.836;4.330;2022-09-03T00:03:57;10.25;;;8.50;;
23119;SDS011;11729;50.836;4.330;2022-09-03T00:06:34;11.73;;;8.70;;
23119;SDS011;11729;50.836;4.330;2022-09-03T00:12:07;12.35;;;9.00;;
23119;SDS011;11729;50.836;4.330;2022-09-03T00:15:08;9.40;;;8.30;;
23119;SDS011;11729;50.836;4.330;2022-09-03T00:20:14;9.13;;;8.32;;
23119;SDS011;11729;50.836;4.330;2022-09-03T00:22:56;10.13;;;8.27;;
23119;SDS011;11729;50.836;4.330;2022-09-03T00:25:32;11.65;;;9.02;;
23119;SDS011;11729;50.836;4.330;2022-09-03T00:28:04;13.02;;;10.98;;
23119;SDS011;11729;50.836;4.330;2022-09-03T00:33:55;10.68;;;9.07;;
23119;SDS011;11729;50.836;4.330;2022-09-03T00:36:27;8.30;;;7.50;;
23119;SDS011;11729;50.836;4.330;2022-09-03T00:39:07;7.50;;;6.90;;
23119;SDS011;11729;50.836;4.330;2022-09-03T00:41:36;7.90;;;7.10;;
23119;SDS011;11729;50.836;4.330;2022-09-03T00:46:46;10.65;;;6.90;;
23119;SDS011;11729;50.836;4.330;2022-09-03T01:00:03;8.20;;;7.47;;
23119;SDS011;11729;50.836;4.330;2022-09-03T01:08:08;12.70;;;7.53;;
23119;SDS011;11729;50.836;4.330;2022-09-03T01:13:53;7.93;;;7.10;;
23119;SDS011;11729;50.836;4.330;2022-09-03T01:30:12;8.15;;;7.35;;
23119;SDS011;11729;50.836;4.330;2022-09-03T01:37:57;10.88;;;8.40;;
23119;SDS011;11729;50.836;4.330;2022-09-03T01:43:22;12.82;;;8.00;;
23119;SDS011;11729;50.836;4.330;2022-09-03T01:46:17;10.75;;;8.40;;
23119;SDS011;11729;50.836;4.330;2022-09-03T01:48:57;9.30;;;8.18;;
23119;SDS011;11729;50.836;4.330;2022-09-03T01:51:46;9.18;;;8.32;;
23119;SDS011;11729;50.836;4.330;2022-09-03T01:59:46;8.82;;;8.07;;
23119;SDS011;11729;50.836;4.330;2022-09-03T02:02:25;9.32;;;8.52;;
23119;SDS011;11729;50.836;4.330;2022-09-03T02:04:56;14.07;;;8.75;;
23119;SDS011;11729;50.836;4.330;2022-09-03T02:07:32;14.00;;;8.77;;
23119;SDS011;11729;50.836;4.330;2022-09-03T02:10:00;9.82;;;8.57;;
23119;SDS011;11729;50.836;4.330;2022-09-03T02:12:28;9.50;;;8.53;;
23119;SDS011;11729;50.836;4.330;2022-09-03T02:14:57;10.40;;;8.43;;
23119;SDS011;11729;50.836;4.330;2022-09-03T02:17:27;9.43;;;8.43;;
23119;SDS011;11729;50.836;4.330;2022-09-03T02:19:54;10.00;;;9.00;;
23119;SDS011;11729;50.836;4.330;2022-09-03T02:22:20;11.38;;;8.75;;
23119;SDS011;11729;50.836;4.330;2022-09-03T02:24:45;11.07;;;9.15;;
23119;SDS011;11729;50.836;4.330;2022-09-03T02:27:11;9.68;;;8.52;;
23119;SDS011;11729;50.836;4.330;2022-09-03T02:29:37;9.70;;;8.80;;
23119;SDS011;11729;50.836;4.330;2022-09-03T02:32:03;9.98;;;9.07;;
23119;SDS011;11729;50.836;4.330;2022-09-03T02:34:29;11.05;;;8.55;;
23119;SDS011;11729;50.836;4.330;2022-09-03T02:36:54;11.57;;;9.57;;
23119;SDS011;11729;50.836;4.330;2022-09-03T02:39:20;14.43;;;9.27;;
23119;SDS011;11729;50.836;4.330;2022-09-03T02:41:49;9.95;;;8.70;;
23119;SDS011;11729;50.836;4.330;2022-09-03T02:44:19;15.13;;;9.63;;
23119;SDS011;11729;50.836;4.330;2022-09-03T02:47:02;10.52;;;9.13;;
23119;SDS011;11729;50.836;4.330;2022-09-03T02:49:30;10.27;;;9.40;;
23119;SDS011;11729;50.836;4.330;2022-09-03T02:52:00;12.10;;;9.88;;
23119;SDS011;11729;50.836;4.330;2022-09-03T02:54:33;10.55;;;9.52;;
23119;SDS011;11729;50.836;4.330;2022-09-03T02:57:03;14.68;;;10.13;;
23119;SDS011;11729;50.836;4.330;2022-09-03T02:59:30;16.23;;;9.50;;
23119;SDS011;11729;50.836;4.330;2022-09-03T03:01:56;15.63;;;11.40;;
23119;SDS011;11729;50.836;4.330;2022-09-03T03:04:22;19.33;;;12.77;;
23119;SDS011;11729;50.836;4.330;2022-09-03T03:06:47;15.75;;;12.18;;
23119;SDS011;11729;50.836;4.330;2022-09-03T03:09:14;16.15;;;11.57;;
23119;SDS011;11729;50.836;4.330;2022-09-03T03:11:40;16.48;;;12.00;;
23119;SDS011;11729;50.836;4.330;2022-09-03T03:14:06;13.25;;;11.32;;
23119;SDS011;11729;50.836;4.330;2022-09-03T03:16:32;13.50;;;12.10;;
23119;SDS011;11729;50.836;4.330;2022-09-03T03:18:57;12.65;;;11.48;;
23119;SDS011;11729;50.836;4.330;2022-09-03T03:21:24;20.17;;;12.00;;
23119;SDS011;11729;50.836;4.330;2022-09-03T03:23:49;13.88;;;12.43;;
23119;SDS011;11729;50.836;4.330;2022-09-03T03:26:16;14.40;;;12.43;;
23119;SDS011;11729;50.836;4.330;2022-09-03T03:28:44;17.60;;;12.23;;
23119;SDS011;11729;50.836;4.330;2022-09-03T03:31:14;15.43;;;11.80;;
23119;SDS011;11729;50.836;4.330;2022-09-03T03:33:41;13.35;;;11.95;;
23119;SDS011;11729;50.836;4.330;2022-09-03T03:36:09;15.95;;;12.45;;
23119;SDS011;11729;50.836;4.330;2022-09-03T03:38:39;21.25;;;11.73;;
23119;SDS011;11729;50.836;4.330;2022-09-03T03:41:09;17.33;;;12.30;;
23119;SDS011;11729;50.836;4.330;2022-09-03T03:43:40;15.93;;;12.57;;
23119;SDS011;11729;50.836;4.330;2022-09-03T03:46:06;21.80;;;13.10;;
23119;SDS011;11729;50.836;4.330;2022-09-03T03:48:32;15.77;;;13.32;;
23119;SDS011;11729;50.836;4.330;2022-09-03T03:51:01;17.48;;;13.00;;
23119;SDS011;11729;50.836;4.330;2022-09-03T03:53:30;21.13;;;12.45;;
23119;SDS011;11729;50.836;4.330;2022-09-03T03:55:57;13.88;;;12.25;;
23119;SDS011;11729;50.836;4.330;2022-09-03T03:58:25;14.55;;;13.15;;
23119;SDS011;11729;50.836;4.330;2022-09-03T04:00:51;15.10;;;13.32;;
23119;SDS011;11729;50.836;4.330;2022-09-03T04:03:17;14.20;;;12.35;;
23119;SDS011;11729;50.836;4.330;2022-09-03T04:05:53;14.50;;;12.88;;
23119;SDS011;11729;50.836;4.330;2022-09-03T04:08:20;14.63;;;10.73;;
23119;SDS011;11729;50.836;4.330;2022-09-03T04:10:46;13.98;;;11.73;;
23119;SDS011;11729;50.836;4.330;2022-09-03T04:13:12;9.48;;;8.68;;
23119;SDS011;11729;50.836;4.330;2022-09-03T04:15:38;9.60;;;8.60;;
23119;SDS011;11729;50.836;4.330;2022-09-03T04:18:04;8.55;;;7.85;;
23119;SDS011;11729;50.836;4.330;2022-09-03T04:20:30;8.57;;;7.85;;
23119;SDS011;11729;50.836;4.330;2022-09-03T04:22:59;8.27;;;7.50;;
23119;SDS011;11729;50.836;4.330;2022-09-03T04:25:25;8.20;;;7.50;;
23119;SDS011;11729;50.836;4.330;2022-09-03T04:27:51;8.10;;;7.35;;
23119;SDS011;11729;50.836;4.330;2022-09-03T04:30:17;9.35;;;7.70;;
23119;SDS011;11729;50.836;4.330;2022-09-03T04:32:42;8.60;;;7.25;;
23119;SDS011;11729;50.836;4.330;2022-09-03T04:35:21;8.68;;;7.90;;
23119;SDS011;11729;50.836;4.330;2022-09-03T04:37:53;10.20;;;9.18;;
23119;SDS011;11729;50.836;4.330;2022-09-03T04:40:19;8.70;;;7.88;;
23119;SDS011;11729;50.836;4.330;2022-09-03T04:42:44;8.30;;;7.60;;
23119;SDS011;11729;50.836;4.330;2022-09-03T04:45:10;8.73;;;8.02;;
23119;SDS011;11729;50.836;4.330;2022-09-03T04:47:36;8.27;;;7.57;;
23119;SDS011;11729;50.836;4.330;2022-09-03T04:50:03;8.13;;;7.35;;
23119;SDS011;11729;50.836;4.330;2022-09-03T04:52:30;7.50;;;6.90;;
23119;SDS011;11729;50.836;4.330;2022-09-03T04:54:56;7.68;;;7.07;;
23119;SDS011;11729;50.836;4.330;2022-09-03T04:57:22;7.57;;;6.88;;
23119;SDS011;11729;50.836;4.330;2022-09-03T04:59:48;7.90;;;7.15;;
23119;SDS011;11729;50.836;4.330;2022-09-03T05:02:13;8.63;;;7.07;;
23119;SDS011;11729;50.836;4.330;2022-09-03T05:04:39;7.95;;;7.25;;
23119;SDS011;11729;50.836;4.330;2022-09-03T05:07:05;8.55;;;7.75;;
23119;SDS011;11729;50.836;4.330;2022-09-03T05:09:32;8.73;;;7.85;;
23119;SDS011;11729;50.836;4.330;2022-09-03T05:11:57;8.32;;;7.60;;
23119;SDS011;11729;50.836;4.330;2022-09-03T05:14:23;27.08;;;21.35;;
23119;SDS011;11729;50.836;4.330;2022-09-03T05:16:48;10.85;;;7.80;;
23119;SDS011;11729;50.836;4.330;2022-09-03T05:19:14;8.10;;;7.40;;
23119;SDS011;11729;50.836;4.330;2022-09-03T05:21:40;8.02;;;7.30;;
23119;SDS011;11729;50.836;4.330;2022-09-03T05:24:07;8.32;;;7.53;;
23119;SDS011;11729;50.836;4.330;2022-09-03T05:26:35;8.70;;;7.90;;
23119;SDS011;11729;50.836;4.330;2022-09-03T05:29:02;10.88;;;7.28;;
23119;SDS011;11729;50.836;4.330;2022-09-03T05:31:32;8.63;;;7.50;;
23119;SDS011;11729;50.836;4.330;2022-09-03T05:34:01;10.65;;;7.90;;
23119;SDS011;11729;50.836;4.330;2022-09-03T05:36:28;12.10;;;8.63;;
23119;SDS011;11729;50.836;4.330;2022-09-03T05:38:56;10.20;;;7.55;;
23119;SDS011;11729;50.836;4.330;2022-09-03T05:41:23;13.05;;;7.97;;
23119;SDS011;11729;50.836;4.330;2022-09-03T05:43:50;12.07;;;8.35;;
23119;SDS011;11729;50.836;4.330;2022-09-03T05:46:20;13.57;;;9.13;;
23119;SDS011;11729;50.836;4.330;2022-09-03T05:48:50;13.98;;;9.07;;
23119;SDS011;11729;50.836;4.330;2022-09-03T05:51:17;11.07;;;9.88;;
23119;SDS011;11729;50.836;4.330;2022-09-03T05:53:44;10.93;;;9.82;;
23119;SDS011;11729;50.836;4.330;2022-09-03T05:56:11;10.47;;;9.43;;
23119;SDS011;11729;50.836;4.330;2022-09-03T05:58:42;9.73;;;8.93;;
23119;SDS011;11729;50.836;4.330;2022-09-03T06:01:25;10.75;;;9.65;;
23119;SDS011;11729;50.836;4.330;2022-09-03T06:04:09;16.15;;;10.48;;
23119;SDS011;11729;50.836;4.330;2022-09-03T06:06:37;14.20;;;9.88;;
23119;SDS011;11729;50.836;4.330;2022-09-03T06:09:08;11.75;;;10.57;;
23119;SDS011;11729;50.836;4.330;2022-09-03T06:11:40;14.73;;;9.65;;
23119;SDS011;11729;50.836;4.330;2022-09-03T06:14:07;10.75;;;9.63;;
23119;SDS011;11729;50.836;4.330;2022-09-03T06:16:35;15.35;;;9.70;;
23119;SDS011;11729;50.836;4.330;2022-09-03T06:19:03;12.90;;;9.82;;
23119;SDS011;11729;50.836;4.330;2022-09-03T06:21:31;13.60;;;10.55;;
23119;SDS011;11729;50.836;4.330;2022-09-03T06:23:57;16.45;;;12.45;;
23119;SDS011;11729;50.836;4.330;2022-09-03T06:26:23;12.30;;;11.00;;
23119;SDS011;11729;50.836;4.330;2022-09-03T06:28:50;17.05;;;9.95;;
23119;SDS011;11729;50.836;4.330;2022-09-03T06:31:18;20.60;;;9.73;;
23119;SDS011;11729;50.836;4.330;2022-09-03T06:33:45;15.90;;;9.15;;
23119;SDS011;11729;50.836;4.330;2022-09-03T06:36:17;18.75;;;7.97;;
23119;SDS011;11729;50.836;4.330;2022-09-03T06:38:45;11.63;;;7.88;;
23119;SDS011;11729;50.836;4.330;2022-09-03T06:41:12;9.95;;;7.57;;
23119;SDS011;11729;50.836;4.330;2022-09-03T06:43:45;15.65;;;7.28;;
23119;SDS011;11729;50.836;4.330;2022-09-03T06:46:15;7.55;;;6.75;;
23119;SDS011;11729;50.836;4.330;2022-09-03T06:48:42;7.63;;;6.78;;
23119;SDS011;11729;50.836;4.330;2022-09-03T06:53:38;11.32;;;6.50;;
23119;SDS011;11729;50.836;4.330;2022-09-03T06:56:07;8.50;;;6.20;;
23119;SDS011;11729;50.836;4.330;2022-09-03T06:58:41;7.45;;;6.68;;
23119;SDS011;11729;50.836;4.330;2022-09-03T07:03:35;7.68;;;5.53;;
23119;SDS011;11729;50.836;4.330;2022-09-03T07:06:03;10.20;;;5.63;;
23119;SDS011;11729;50.836;4.330;2022-09-03T07:08:33;12.32;;;5.78;;
23119;SDS011;11729;50.836;4.330;2022-09-03T07:10:59;8.68;;;5.70;;
23119;SDS011;11729;50.836;4.330;2022-09-03T07:13:29;9.82;;;5.90;;
23119;SDS011;11729;50.836;4.330;2022-09-03T07:15:58;11.38;;;5.85;;
23119;SDS011;11729;50.836;4.330;2022-09-03T07:18:26;10.07;;;5.97;;
23119;SDS011;11729;50.836;4.330;2022-09-03T07:20:51;12.85;;;5.70;;
23119;SDS011;11729;50.836;4.330;2022-09-03T07:23:22;9.80;;;6.57;;
23119;SDS011;11729;50.836;4.330;2022-09-03T07:25:59;10.07;;;6.40;;
23119;SDS011;11729;50.836;4.330;2022-09-03T07:28:27;9.30;;;6.07;;
23119;SDS011;11729;50.836;4.330;2022-09-03T07:30:54;7.82;;;6.07;;
23119;SDS011;11729;50.836;4.330;2022-09-03T07:33:29;10.00;;;6.47;;
23119;SDS011;11729;50.836;4.330;2022-09-03T07:35:55;12.20;;;6.18;;
23119;SDS011;11729;50.836;4.330;2022-09-03T07:38:26;14.25;;;6.47;;
23119;SDS011;11729;50.836;4.330;2022-09-03T07:40:58;10.85;;;5.95;;
23119;SDS011;11729;50.836;4.330;2022-09-03T07:43:26;12.30;;;6.20;;
23119;SDS011;11729;50.836;4.330;2022-09-03T07:45:53;18.80;;;6.35;;
23119;SDS011;11729;50.836;4.330;2022-09-03T07:48:19;7.75;;;6.07;;
23119;SDS011;11729;50.836;4.330;2022-09-03T07:50:45;6.95;;;6.30;;
23119;SDS011;11729;50.836;4.330;2022-09-03T07:53:12;11.52;;;6.35;;
23119;SDS011;11729;50.836;4.330;2022-09-03T07:55:37;9.45;;;7.03;;
23119;SDS011;11729;50.836;4.330;2022-09-03T07:58:04;8.68;;;6.53;;
23119;SDS011;11729;50.836;4.330;2022-09-03T08:00:29;14.43;;;6.55;;
23119;SDS011;11729;50.836;4.330;2022-09-03T08:02:57;9.35;;;6.65;;
23119;SDS011;11729;50.836;4.330;2022-09-03T08:05:30;7.53;;;6.70;;
23119;SDS011;11729;50.836;4.330;2022-09-03T08:07:58;8.90;;;6.27;;
23119;SDS011;11729;50.836;4.330;2022-09-03T08:10:24;10.95;;;6.63;;
23119;SDS011;11729;50.836;4.330;2022-09-03T08:12:52;6.97;;;6.25;;
23119;SDS011;11729;50.836;4.330;2022-09-03T08:15:18;10.45;;;6.38;;
23119;SDS011;11729;50.836;4.330;2022-09-03T08:17:43;11.80;;;8.40;;
23119;SDS011;11729;50.836;4.330;2022-09-03T08:20:09;18.20;;;12.35;;
23119;SDS011;11729;50.836;4.330;2022-09-03T08:22:35;8.65;;;7.32;;
23119;SDS011;11729;50.836;4.330;2022-09-03T08:25:01;8.15;;;6.53;;
23119;SDS011;11729;50.836;4.330;2022-09-03T08:27:27;11.73;;;6.93;;
23119;SDS011;11729;50.836;4.330;2022-09-03T08:29:54;11.35;;;6.65;;
23119;SDS011;11729;50.836;4.330;2022-09-03T08:32:19;8.35;;;6.80;;
23119;SDS011;11729;50.836;4.330;2022-09-03T08:34:45;10.02;;;6.50;;
23119;SDS011;11729;50.836;4.330;2022-09-03T08:37:11;10.98;;;6.90;;
23119;SDS011;11729;50.836;4.330;2022-09-03T08:39:37;8.18;;;7.00;;
23119;SDS011;11729;50.836;4.330;2022-09-03T08:42:16;9.85;;;7.03;;
23119;SDS011;11729;50.836;4.330;2022-09-03T08:44:58;13.88;;;7.20;;
23119;SDS011;11729;50.836;4.330;2022-09-03T08:47:40;9.75;;;6.57;;
23119;SDS011;11729;50.836;4.330;2022-09-03T08:58:11;9.50;;;7.13;;
23119;SDS011;11729;50.836;4.330;2022-09-03T09:20:07;10.85;;;7.03;;
23119;SDS011;11729;50.836;4.330;2022-09-03T09:22:43;10.93;;;6.70;;
23119;SDS011;11729;50.836;4.330;2022-09-03T09:25:12;10.45;;;6.90;;
23119;SDS011;11729;50.836;4.330;2022-09-03T09:28:01;7.88;;;7.07;;
23119;SDS011;11729;50.836;4.330;2022-09-03T09:30:30;8.70;;;6.70;;
23119;SDS011;11729;50.836;4.330;2022-09-03T09:32:57;7.68;;;6.90;;
23119;SDS011;11729;50.836;4.330;2022-09-03T09:35:24;8.50;;;7.05;;
23119;SDS011;11729;50.836;4.330;2022-09-03T09:37:54;10.98;;;7.10;;
23119;SDS011;11729;50.836;4.330;2022-09-03T09:40:23;9.27;;;7.55;;
23119;SDS011;11729;50.836;4.330;2022-09-03T09:43:01;9.27;;;6.95;;
23119;SDS011;11729;50.836;4.330;2022-09-03T09:45:31;18.67;;;7.35;;
23119;SDS011;11729;50.836;4.330;2022-09-03T09:47:58;11.13;;;7.45;;
23119;SDS011;11729;50.836;4.330;2022-09-03T09:50:24;15.20;;;7.90;;
23119;SDS011;11729;50.836;4.330;2022-09-03T09:53:03;15.20;;;7.78;;
23119;SDS011;11729;50.836;4.330;2022-09-03T09:55:49;13.85;;;8.23;;
23119;SDS011;11729;50.836;4.330;2022-09-03T09:58:15;11.00;;;8.23;;
23119;SDS011;11729;50.836;4.330;2022-09-03T10:00:53;10.27;;;7.85;;
23119;SDS011;11729;50.836;4.330;2022-09-03T10:03:58;17.08;;;8.38;;
23119;SDS011;11729;50.836;4.330;2022-09-03T10:06:31;15.93;;;7.63;;
23119;SDS011;11729;50.836;4.330;2022-09-03T10:09:16;11.68;;;7.93;;
23119;SDS011;11729;50.836;4.330;2022-09-03T10:14:45;9.83;;;7.67;;
23119;SDS011;11729;50.836;4.330;2022-09-03T10:23:23;12.65;;;8.80;;
23119;SDS011;11729;50.836;4.330;2022-09-03T10:26:12;13.48;;;9.35;;
23119;SDS011;11729;50.836;4.330;2022-09-03T10:28:41;13.27;;;8.93;;
23119;SDS011;11729;50.836;4.330;2022-09-03T10:31:26;12.82;;;8.55;;
23119;SDS011;11729;50.836;4.330;2022-09-03T10:42:38;10.38;;;8.23;;
23119;SDS011;11729;50.836;4.330;2022-09-03T10:50:52;9.82;;;8.00;;
23119;SDS011;11729;50.836;4.330;2022-09-03T10:56:31;7.97;;;7.10;;
23119;SDS011;11729;50.836;4.330;2022-09-03T11:07:36;13.30;;;8.55;;
23119;SDS011;11729;50.836;4.330;2022-09-03T11:10:17;8.65;;;7.25;;
23119;SDS011;11729;50.836;4.330;2022-09-03T11:20:44;9.55;;;7.30;;
23119;SDS011;11729;50.836;4.330;2022-09-03T11:23:13;7.90;;;7.13;;
23119;SDS011;11729;50.836;4.330;2022-09-03T11:25:46;8.65;;;6.90;;
23119;SDS011;11729;50.836;4.330;2022-09-03T11:28:59;11.95;;;7.53;;
23119;SDS011;11729;50.836;4.330;2022-09-03T11:31:25;7.35;;;6.72;;
23119;SDS011;11729;50.836;4.330;2022-09-03T11:33:58;20.27;;;8.88;;
23119;SDS011;11729;50.836;4.330;2022-09-03T11:36:31;12.93;;;9.95;;
23119;SDS011;11729;50.836;4.330;2022-09-03T11:44:49;16.25;;;10.00;;
23119;SDS011;11729;50.836;4.330;2022-09-03T11:49:45;13.57;;;9.82;;
23119;SDS011;11729;50.836;4.330;2022-09-03T11:52:23;13.50;;;9.65;;
23119;SDS011;11729;50.836;4.330;2022-09-03T11:54:55;10.73;;;8.65;;
23119;SDS011;11729;50.836;4.330;2022-09-03T11:57:26;9.82;;;8.77;;
23119;SDS011;11729;50.836;4.330;2022-09-03T11:59:54;9.93;;;8.93;;
23119;SDS011;11729;50.836;4.330;2022-09-03T12:02:54;13.15;;;8.10;;
23119;SDS011;11729;50.836;4.330;2022-09-03T12:05:41;9.43;;;7.82;;
23119;SDS011;11729;50.836;4.330;2022-09-03T12:11:04;7.97;;;7.22;;
23119;SDS011;11729;50.836;4.330;2022-09-03T12:16:35;8.25;;;7.10;;
23119;SDS011;11729;50.836;4.330;2022-09-03T12:19:05;6.88;;;6.28;;
23119;SDS011;11729;50.836;4.330;2022-09-03T12:21:39;7.82;;;7.03;;
23119;SDS011;11729;50.836;4.330;2022-09-03T12:24:04;7.43;;;6.43;;
23119;SDS011;11729;50.836;4.330;2022-09-03T12:26:37;6.80;;;6.30;;
23119;SDS011;11729;50.836;4.330;2022-09-03T12:29:06;7.32;;;6.57;;
23119;SDS011;11729;50.836;4.330;2022-09-03T12:31:43;8.85;;;6.70;;
23119;SDS011;11729;50.836;4.330;2022-09-03T12:34:14;7.10;;;6.38;;
23119;SDS011;11729;50.836;4.330;2022-09-03T12:36:43;7.35;;;6.40;;
23119;SDS011;11729;50.836;4.330;2022-09-03T12:39:13;10.27;;;6.82;;
23119;SDS011;11729;50.836;4.330;2022-09-03T12:41:53;7.30;;;6.70;;
23119;SDS011;11729;50.836;4.330;2022-09-03T12:44:26;6.93;;;6.32;;
23119;SDS011;11729;50.836;4.330;2022-09-03T12:49:38;7.28;;;6.57;;
23119;SDS011;11729;50.836;4.330;2022-09-03T12:52:28;6.50;;;6.00;;
23119;SDS011;11729;50.836;4.330;2022-09-03T12:57:45;6.90;;;5.28;;
23119;SDS011;11729;50.836;4.330;2022-09-03T13:00:15;5.95;;;5.45;;
23119;SDS011;11729;50.836;4.330;2022-09-03T13:05:34;5.35;;;4.95;;
23119;SDS011;11729;50.836;4.330;2022-09-03T13:08:06;8.70;;;5.22;;
23119;SDS011;11729;50.836;4.330;2022-09-03T13:10:38;5.43;;;5.00;;
23119;SDS011;11729;50.836;4.330;2022-09-03T13:13:18;7.55;;;5.40;;
23119;SDS011;11729;50.836;4.330;2022-09-03T13:15:56;5.35;;;4.95;;
23119;SDS011;11729;50.836;4.330;2022-09-03T13:21:18;5.95;;;5.22;;
23119;SDS011;11729;50.836;4.330;2022-09-03T13:31:41;7.22;;;4.82;;
23119;SDS011;11729;50.836;4.330;2022-09-03T13:34:21;21.90;;;6.43;;
23119;SDS011;11729;50.836;4.330;2022-09-03T13:37:16;6.40;;;5.00;;
23119;SDS011;11729;50.836;4.330;2022-09-03T13:41:01;5.20;;;4.70;;
23119;SDS011;11729;50.836;4.330;2022-09-03T13:42:55;6.03;;;5.10;;
23119;SDS011;11729;50.836;4.330;2022-09-03T13:45:28;7.13;;;6.55;;
23119;SDS011;11729;50.836;4.330;2022-09-03T13:48:07;5.00;;;4.60;;
23119;SDS011;11729;50.836;4.330;2022-09-03T13:51:10;7.15;;;5.32;;
23119;SDS011;11729;50.836;4.330;2022-09-03T13:53:58;7.25;;;5.05;;
23119;SDS011;11729;50.836;4.330;2022-09-03T14:13:12;6.25;;;5.70;;
23119;SDS011;11729;50.836;4.330;2022-09-03T14:26:50;6.80;;;5.80;;
23119;SDS011;11729;50.836;4.330;2022-09-03T14:29:20;6.15;;;5.50;;
23119;SDS011;11729;50.836;4.330;2022-09-03T14:40:29;6.80;;;6.20;;
23119;SDS011;11729;50.836;4.330;2022-09-03T14:43:20;6.30;;;5.80;;
23119;SDS011;11729;50.836;4.330;2022-09-03T14:45:52;6.60;;;6.00;;
23119;SDS011;11729;50.836;4.330;2022-09-03T14:51:22;6.93;;;6.43;;
23119;SDS011;11729;50.836;4.330;2022-09-03T14:54:04;8.85;;;6.50;;
23119;SDS011;11729;50.836;4.330;2022-09-03T15:02:10;7.97;;;6.50;;
23119;SDS011;11729;50.836;4.330;2022-09-03T15:07:47;11.10;;;6.93;;
23119;SDS011;11729;50.836;4.330;2022-09-03T15:10:25;14.02;;;12.20;;
23119;SDS011;11729;50.836;4.330;2022-09-03T15:13:19;7.88;;;7.10;;
23119;SDS011;11729;50.836;4.330;2022-09-03T15:15:51;6.63;;;6.13;;
23119;SDS011;11729;50.836;4.330;2022-09-03T15:29:26;7.63;;;6.72;;
23119;SDS011;11729;50.836;4.330;2022-09-03T15:37:27;11.52;;;7.15;;
23119;SDS011;11729;50.836;4.330;2022-09-03T15:39:59;16.52;;;7.88;;
23119;SDS011;11729;50.836;4.330;2022-09-03T15:42:29;11.57;;;7.53;;
23119;SDS011;11729;50.836;4.330;2022-09-03T15:44:59;14.15;;;8.93;;
23119;SDS011;11729;50.836;4.330;2022-09-03T15:52:44;11.70;;;9.98;;
23119;SDS011;11729;50.836;4.330;2022-09-03T15:57:54;9.60;;;7.53;;
23119;SDS011;11729;50.836;4.330;2022-09-03T16:00:33;9.88;;;7.65;;
23119;SDS011;11729;50.836;4.330;2022-09-03T16:03:10;9.90;;;7.80;;
23119;SDS011;11729;50.836;4.330;2022-09-03T16:05:41;9.00;;;8.05;;
23119;SDS011;11729;50.836;4.330;2022-09-03T16:08:21;8.35;;;7.57;;
23119;SDS011;11729;50.836;4.330;2022-09-03T16:11:06;8.20;;;7.40;;
23119;SDS011;11729;50.836;4.330;2022-09-03T16:13:52;10.13;;;7.75;;
23119;SDS011;11729;50.836;4.330;2022-09-03T16:16:41;11.80;;;8.40;;
23119;SDS011;11729;50.836;4.330;2022-09-03T16:19:30;9.40;;;8.45;;
23119;SDS011;11729;50.836;4.330;2022-09-03T16:22:06;8.07;;;7.28;;
23119;SDS011;11729;50.836;4.330;2022-09-03T16:27:31;10.38;;;8.43;;
23119;SDS011;11729;50.836;4.330;2022-09-03T16:49:39;6.88;;;6.35;;
23119;SDS011;11729;50.836;4.330;2022-09-03T17:04:38;8.00;;;7.30;;
23119;SDS011;11729;50.836;4.330;2022-09-03T17:15:52;9.50;;;7.90;;
23119;SDS011;11729;50.836;4.330;2022-09-03T17:18:45;7.90;;;7.20;;
23119;SDS011;11729;50.836;4.330;2022-09-03T17:27:59;9.00;;;8.20;;
23119;SDS011;11729;50.836;4.330;2022-09-03T17:41:26;12.35;;;8.15;;
23119;SDS011;11729;50.836;4.330;2022-09-03T17:49:30;8.82;;;8.02;;
23119;SDS011;11729;50.836;4.330;2022-09-03T17:52:12;12.07;;;9.15;;
23119;SDS011;11729;50.836;4.330;2022-09-03T17:54:50;9.50;;;8.70;;
23119;SDS011;11729;50.836;4.330;2022-09-03T17:57:19;9.00;;;8.20;;
23119;SDS011;11729;50.836;4.330;2022-09-03T18:02:28;17.02;;;14.93;;
23119;SDS011;11729;50.836;4.330;2022-09-03T18:05:03;10.27;;;9.15;;
23119;SDS011;11729;50.836;4.330;2022-09-03T18:08:06;8.93;;;8.13;;
23119;SDS011;11729;50.836;4.330;2022-09-03T18:13:15;9.17;;;7.93;;
23119;SDS011;11729;50.836;4.330;2022-09-03T18:16:00;8.65;;;7.82;;
23119;SDS011;11729;50.836;4.330;2022-09-03T18:18:44;9.68;;;8.77;;
23119;SDS011;11729;50.836;4.330;2022-09-03T18:21:13;14.32;;;8.68;;
23119;SDS011;11729;50.836;4.330;2022-09-03T18:26:54;10.43;;;8.10;;
23119;SDS011;11729;50.836;4.330;2022-09-03T18:29:43;9.07;;;7.65;;
23119;SDS011;11729;50.836;4.330;2022-09-03T18:32:36;8.85;;;7.95;;
23119;SDS011;11729;50.836;4.330;2022-09-03T18:35:20;8.07;;;7.28;;
23119;SDS011;11729;50.836;4.330;2022-09-03T18:38:06;10.00;;;7.40;;
23119;SDS011;11729;50.836;4.330;2022-09-03T18:40:56;9.77;;;7.07;;
23119;SDS011;11729;50.836;4.330;2022-09-03T18:50:15;9.88;;;8.98;;
23119;SDS011;11729;50.836;4.330;2022-09-03T18:53:12;10.07;;;9.07;;
23119;SDS011;11729;50.836;4.330;2022-09-03T18:56:08;9.95;;;8.80;;
23119;SDS011;11729;50.836;4.330;2022-09-03T18:59:22;8.88;;;8.07;;
23119;SDS011;11729;50.836;4.330;2022-09-03T19:02:22;10.48;;;9.50;;
23119;SDS011;11729;50.836;4.330;2022-09-03T19:05:24;10.07;;;8.63;;
23119;SDS011;11729;50.836;4.330;2022-09-03T19:08:34;7.72;;;6.78;;
23119;SDS011;11729;50.836;4.330;2022-09-03T19:14:14;7.85;;;7.20;;
23119;SDS011;11729;50.836;4.330;2022-09-03T19:23:08;7.75;;;6.97;;
23119;SDS011;11729;50.836;4.330;2022-09-03T19:25:53;9.45;;;7.53;;
23119;SDS011;11729;50.836;4.330;2022-09-03T19:28:46;8.90;;;8.00;;
23119;SDS011;11729;50.836;4.330;2022-09-03T19:34:50;8.75;;;7.95;;
23119;SDS011;11729;50.836;4.330;2022-09-03T19:44:17;9.38;;;8.25;;
23119;SDS011;11729;50.836;4.330;2022-09-03T19:47:32;11.98;;;8.40;;
23119;SDS011;11729;50.836;4.330;2022-09-03T19:50:35;10.85;;;8.07;;
23119;SDS011;11729;50.836;4.330;2022-09-03T19:53:23;9.23;;;8.40;;
23119;SDS011;11729;50.836;4.330;2022-09-03T19:56:09;12.18;;;8.80;;
23119;SDS011;11729;50.836;4.330;2022-09-03T19:59:06;9.45;;;8.25;;
23119;SDS011;11729;50.836;4.330;2022-09-03T20:01:55;9.50;;;8.70;;
23119;SDS011;11729;50.836;4.330;2022-09-03T20:04:40;13.70;;;8.40;;
23119;SDS011;11729;50.836;4.330;2022-09-03T20:07:30;9.60;;;8.27;;
23119;SDS011;11729;50.836;4.330;2022-09-03T20:10:16;9.27;;;8.38;;
23119;SDS011;11729;50.836;4.330;2022-09-03T20:13:10;11.43;;;9.23;;
23119;SDS011;11729;50.836;4.330;2022-09-03T20:21:04;9.82;;;8.48;;
23119;SDS011;11729;50.836;4.330;2022-09-03T20:26:51;8.90;;;7.80;;
23119;SDS011;11729;50.836;4.330;2022-09-03T20:31:58;10.23;;;8.38;;
23119;SDS011;11729;50.836;4.330;2022-09-03T20:37:27;9.80;;;8.57;;
23119;SDS011;11729;50.836;4.330;2022-09-03T20:48:18;10.55;;;8.20;;
23119;SDS011;11729;50.836;4.330;2022-09-03T20:56:11;10.13;;;9.10;;
23119;SDS011;11729;50.836;4.330;2022-09-03T21:01:44;10.15;;;8.50;;
23119;SDS011;11729;50.836;4.330;2022-09-03T21:09:58;10.43;;;9.35;;
23119;SDS011;11729;50.836;4.330;2022-09-03T21:12:37;10.98;;;9.85;;
23119;SDS011;11729;50.836;4.330;2022-09-03T21:23:14;14.38;;;9.93;;
23119;SDS011;11729;50.836;4.330;2022-09-03T21:25:52;10.55;;;9.35;;
23119;SDS011;11729;50.836;4.330;2022-09-03T21:31:28;11.20;;;9.98;;
23119;SDS011;11729;50.836;4.330;2022-09-03T21:33:54;11.32;;;9.60;;
23119;SDS011;11729;50.836;4.330;2022-09-03T21:36:28;10.18;;;9.13;;
23119;SDS011;11729;50.836;4.330;2022-09-03T21:39:00;11.35;;;9.50;;
23119;SDS011;11729;50.836;4.330;2022-09-03T21:41:38;10.63;;;9.57;;
23119;SDS011;11729;50.836;4.330;2022-09-03T21:44:12;9.93;;;8.95;;
23119;SDS011;11729;50.836;4.330;2022-09-03T21:52:41;9.82;;;8.93;;